createdAt,value
2023-01-18T00:01:05.740Z,11.63
2023-01-18T00:03:51.226Z,8.70
2023-01-18T00:06:36.749Z,7.78
2023-01-18T00:09:22.103Z,7.65
2023-01-18T00:12:07.445Z,8.23
2023-01-18T00:14:52.884Z,7.82
2023-01-18T00:17:53.310Z,7.43
2023-01-18T00:20:39.147Z,7.53
2023-01-18T00:23:24.425Z,6.15
2023-01-18T00:26:11.433Z,7.90
2023-01-18T00:28:57.299Z,6.97
2023-01-18T00:31:43.306Z,7.40
2023-01-18T00:34:28.775Z,7.28
2023-01-18T00:37:14.205Z,7.38
2023-01-18T00:39:59.835Z,7.70
2023-01-18T00:43:03.816Z,8.27
2023-01-18T00:45:49.405Z,7.70
2023-01-18T00:48:36.057Z,7.93
2023-01-18T00:51:24.787Z,8.73
2023-01-18T00:54:10.163Z,7.63
2023-01-18T00:56:55.645Z,8.00
2023-01-18T00:59:41.121Z,8.07
2023-01-18T01:02:26.451Z,8.20
2023-01-18T01:05:38.704Z,7.28
2023-01-18T01:08:24.103Z,6.85
2023-01-18T01:11:12.146Z,7.00
2023-01-18T01:14:16.159Z,7.05
2023-01-18T01:17:20.177Z,7.35
2023-01-18T01:20:24.462Z,6.53
2023-01-18T01:23:37.767Z,7.15
2023-01-18T01:26:23.025Z,7.22
2023-01-18T01:29:08.716Z,6.03
2023-01-18T01:31:53.961Z,7.45
2023-01-18T01:34:39.483Z,7.97
2023-01-18T01:37:24.799Z,8.95
2023-01-18T01:40:11.311Z,10.02
2023-01-18T01:42:57.027Z,8.02
2023-01-18T01:45:42.790Z,9.30
2023-01-18T01:48:28.149Z,7.53
2023-01-18T01:51:15.233Z,9.80
2023-01-18T01:54:03.768Z,8.27
2023-01-18T01:56:53.718Z,6.75
2023-01-18T01:59:44.412Z,7.43
2023-01-18T02:02:32.809Z,7.47
2023-01-18T02:05:18.723Z,7.45
2023-01-18T02:08:06.174Z,6.32
2023-01-18T02:10:52.863Z,6.28
2023-01-18T02:13:38.355Z,5.75
2023-01-18T02:16:45.512Z,5.10
2023-01-18T02:19:43.293Z,5.05
2023-01-18T02:23:07.485Z,4.70
2023-01-18T02:26:29.895Z,5.38
2023-01-18T02:29:17.674Z,4.60
2023-01-18T02:32:42.129Z,5.10
2023-01-18T02:35:43.116Z,5.28
2023-01-18T02:38:37.963Z,3.92
2023-01-18T02:41:49.604Z,4.70
2023-01-18T02:45:00.767Z,5.13
2023-01-18T02:47:46.756Z,5.10
2023-01-18T02:50:32.275Z,4.80
2023-01-18T02:53:18.274Z,5.25
2023-01-18T02:56:26.203Z,5.72
2023-01-18T02:59:38.108Z,4.90
2023-01-18T03:02:26.391Z,4.65
2023-01-18T03:05:12.203Z,4.85
2023-01-18T03:08:11.356Z,4.78
2023-01-18T03:11:06.340Z,4.57
2023-01-18T03:14:01.645Z,5.10
2023-01-18T03:16:58.077Z,4.50
2023-01-18T03:20:07.234Z,4.95
2023-01-18T03:23:20.137Z,4.82
2023-01-18T03:26:16.419Z,4.13
2023-01-18T03:29:23.096Z,3.70
2023-01-18T03:32:31.561Z,3.80
2023-01-18T03:35:19.182Z,3.47
2023-01-18T03:38:05.019Z,4.05
2023-01-18T03:40:50.348Z,4.47
2023-01-18T03:43:37.818Z,5.45
2023-01-18T03:46:26.494Z,9.43
2023-01-18T03:49:12.995Z,5.00
2023-01-18T03:52:01.806Z,4.60
2023-01-18T03:55:05.353Z,3.55
2023-01-18T03:57:59.882Z,3.90
2023-01-18T04:00:45.638Z,4.10
2023-01-18T04:03:34.942Z,3.63
2023-01-18T04:06:22.929Z,4.03
2023-01-18T04:09:08.343Z,4.05
2023-01-18T04:11:54.032Z,4.05
2023-01-18T04:14:39.233Z,3.88
2023-01-18T04:17:24.717Z,4.47
2023-01-18T04:20:10.581Z,4.00
2023-01-18T04:22:56.774Z,4.45
2023-01-18T04:25:50.041Z,3.45
2023-01-18T04:28:35.872Z,4.00
2023-01-18T04:31:22.028Z,3.92
2023-01-18T04:34:07.749Z,4.47
2023-01-18T04:36:53.597Z,4.07
2023-01-18T04:39:39.047Z,6.18
2023-01-18T04:42:25.810Z,6.68
2023-01-18T04:45:14.190Z,7.15
2023-01-18T04:47:59.333Z,5.25
2023-01-18T04:50:46.578Z,5.68
2023-01-18T04:53:34.933Z,5.93
2023-01-18T04:56:20.264Z,4.82
2023-01-18T04:59:06.225Z,4.63
2023-01-18T05:01:51.638Z,5.25
2023-01-18T05:04:37.105Z,4.75
2023-01-18T05:07:25.253Z,4.72
2023-01-18T05:10:10.981Z,5.80
2023-01-18T05:12:56.593Z,5.22
2023-01-18T05:15:42.604Z,5.00
2023-01-18T05:18:29.342Z,4.85
2023-01-18T05:21:15.731Z,5.72
2023-01-18T05:24:01.489Z,4.85
2023-01-18T05:26:46.629Z,4.68
2023-01-18T05:29:32.008Z,5.47
2023-01-18T05:32:17.699Z,5.30
2023-01-18T05:35:07.157Z,5.03
2023-01-18T05:37:52.860Z,4.20
2023-01-18T05:40:38.315Z,5.20
2023-01-18T05:43:25.826Z,5.72
2023-01-18T05:46:11.278Z,5.40
2023-01-18T05:48:58.346Z,4.95
2023-01-18T05:51:43.971Z,5.30
2023-01-18T05:54:29.357Z,4.43
2023-01-18T05:57:14.857Z,13.23
2023-01-18T06:00:00.305Z,9.32
2023-01-18T06:02:45.553Z,8.20
2023-01-18T06:05:31.195Z,5.00
2023-01-18T06:08:16.595Z,5.82
2023-01-18T06:11:02.235Z,6.22
2023-01-18T06:13:47.832Z,4.82
2023-01-18T06:16:33.103Z,6.97
2023-01-18T06:19:18.815Z,6.97
2023-01-18T06:22:04.179Z,6.05
2023-01-18T06:24:50.169Z,8.65
2023-01-18T06:27:35.711Z,7.55
2023-01-18T06:30:22.040Z,9.43
2023-01-18T06:33:08.585Z,6.50
2023-01-18T06:35:53.957Z,7.43
2023-01-18T06:38:39.175Z,15.38
2023-01-18T06:41:24.554Z,10.23
2023-01-18T06:44:10.011Z,6.78
2023-01-18T06:46:55.379Z,5.38
2023-01-18T06:49:40.863Z,5.40
2023-01-18T06:52:26.279Z,5.03
2023-01-18T06:55:13.010Z,5.13
2023-01-18T06:57:58.365Z,5.18
2023-01-18T07:00:43.699Z,4.82
2023-01-18T07:03:30.742Z,4.85
2023-01-18T07:06:16.255Z,5.55
2023-01-18T07:09:01.618Z,5.22
2023-01-18T07:11:47.003Z,5.47
2023-01-18T07:14:32.512Z,5.32
2023-01-18T07:17:17.835Z,5.10
2023-01-18T07:20:03.414Z,6.20
2023-01-18T07:22:52.711Z,5.53
2023-01-18T07:25:38.167Z,5.93
2023-01-18T07:28:23.671Z,5.53
2023-01-18T07:31:09.318Z,6.55
2023-01-18T07:33:54.947Z,5.78
2023-01-18T07:36:41.866Z,5.85
2023-01-18T07:39:27.573Z,5.70
2023-01-18T07:42:13.132Z,4.68
2023-01-18T07:44:58.547Z,4.85
2023-01-18T07:47:46.370Z,4.75
2023-01-18T07:50:33.570Z,5.35
2023-01-18T07:53:20.485Z,6.45
2023-01-18T07:56:09.431Z,8.32
2023-01-18T07:58:55.647Z,7.53
2023-01-18T08:01:41.205Z,6.72
2023-01-18T08:04:26.750Z,6.88
2023-01-18T08:07:12.053Z,7.20
2023-01-18T08:09:58.106Z,8.30
2023-01-18T08:12:44.162Z,9.18
2023-01-18T08:15:30.021Z,7.88
2023-01-18T08:18:15.688Z,8.35
2023-01-18T08:21:01.456Z,6.38
2023-01-18T08:23:46.851Z,10.02
2023-01-18T08:26:34.125Z,9.10
2023-01-18T08:29:19.802Z,8.00
2023-01-18T08:32:05.518Z,8.05
2023-01-18T08:34:51.529Z,7.50
2023-01-18T08:37:36.773Z,7.85
2023-01-18T08:40:26.664Z,7.40
2023-01-18T08:43:12.336Z,7.10
2023-01-18T08:45:57.593Z,7.78
2023-01-18T08:48:43.828Z,7.03
2023-01-18T08:51:29.454Z,6.00
2023-01-18T08:54:14.818Z,7.35
2023-01-18T08:57:02.443Z,5.93
2023-01-18T08:59:47.918Z,6.70
2023-01-18T09:02:33.358Z,5.25
2023-01-18T09:05:18.855Z,6.03
2023-01-18T09:08:08.403Z,16.67
2023-01-18T09:10:54.234Z,8.90
2023-01-18T09:13:58.589Z,8.18
2023-01-18T09:16:44.473Z,8.95
2023-01-18T09:19:30.200Z,7.03
2023-01-18T09:22:15.849Z,5.57
2023-01-18T09:25:01.235Z,13.25
2023-01-18T09:27:46.869Z,7.43
2023-01-18T09:30:33.124Z,6.50
2023-01-18T09:33:18.836Z,5.10
2023-01-18T09:36:07.823Z,5.78
2023-01-18T09:38:55.500Z,7.97
2023-01-18T09:41:44.763Z,7.68
2023-01-18T09:44:35.082Z,5.68
2023-01-18T09:47:26.962Z,5.70
2023-01-18T09:50:20.865Z,6.13
2023-01-18T09:53:34.652Z,5.72
2023-01-18T09:56:39.205Z,5.63
2023-01-18T09:59:35.686Z,6.13
2023-01-18T10:02:24.336Z,8.23
2023-01-18T10:05:21.472Z,19.13
2023-01-18T10:08:16.640Z,16.92
2023-01-18T10:11:36.650Z,17.13
2023-01-18T10:14:28.601Z,9.45
2023-01-18T10:17:24.024Z,7.22
2023-01-18T10:20:20.767Z,6.30
2023-01-18T10:23:09.253Z,5.15
2023-01-18T10:26:01.009Z,5.45
2023-01-18T10:28:56.309Z,6.10
2023-01-18T10:31:51.156Z,6.45
2023-01-18T10:34:41.750Z,6.57
2023-01-18T10:37:27.369Z,4.88
2023-01-18T10:40:14.686Z,5.55
2023-01-18T10:43:02.482Z,6.95
2023-01-18T10:45:48.319Z,5.63
2023-01-18T10:48:34.871Z,4.65
2023-01-18T10:51:29.284Z,5.20
2023-01-18T10:54:19.028Z,5.88
2023-01-18T10:57:05.761Z,5.93
2023-01-18T10:59:53.692Z,5.40
2023-01-18T11:02:40.572Z,5.30
2023-01-18T11:05:34.171Z,5.47
2023-01-18T11:08:32.654Z,4.40
2023-01-18T11:34:38.237Z,6.47
2023-01-18T11:37:37.496Z,6.70
2023-01-18T11:40:27.987Z,7.05
2023-01-18T11:43:20.430Z,7.47
2023-01-18T11:49:09.692Z,6.90
2023-01-18T11:52:00.303Z,7.57
2023-01-18T11:54:54.188Z,8.02
2023-01-18T11:57:39.442Z,8.13
2023-01-18T12:00:28.256Z,11.45
2023-01-18T12:03:33.850Z,11.35
2023-01-18T12:06:27.224Z,10.48
2023-01-18T12:09:37.489Z,9.75
2023-01-18T12:12:53.483Z,9.80
2023-01-18T12:15:49.505Z,8.95
2023-01-18T12:19:01.541Z,10.02
2023-01-18T12:21:56.441Z,7.15
2023-01-18T12:25:00.207Z,4.78
2023-01-18T12:28:04.882Z,4.57
2023-01-18T12:30:57.521Z,3.10
2023-01-18T12:33:46.373Z,3.25
2023-01-18T12:36:51.906Z,2.90
2023-01-18T12:40:06.494Z,2.65
2023-01-18T12:43:01.313Z,2.40
2023-01-18T12:46:10.261Z,3.15
2023-01-18T12:49:02.041Z,3.05
2023-01-18T12:51:50.550Z,3.13
2023-01-18T12:54:40.998Z,3.40
2023-01-18T12:57:29.834Z,11.10
2023-01-18T13:00:23.097Z,14.77
2023-01-18T13:03:14.584Z,35.47
2023-01-18T13:06:02.429Z,27.27
2023-01-18T13:09:04.938Z,18.45
2023-01-18T13:15:01.844Z,4.85
2023-01-18T13:18:06.457Z,3.30
2023-01-18T13:21:06.348Z,4.30
2023-01-18T13:24:00.537Z,2.83
2023-01-18T13:26:46.882Z,2.90
2023-01-18T13:29:32.333Z,2.50
2023-01-18T13:32:26.487Z,2.40
2023-01-18T13:35:25.851Z,2.63
2023-01-18T13:38:13.367Z,2.00
2023-01-18T13:41:02.780Z,2.22
2023-01-18T13:43:51.584Z,3.08
2023-01-18T13:46:39.336Z,2.10
2023-01-18T13:49:38.244Z,2.03
2023-01-18T13:52:35.828Z,1.30
2023-01-18T13:55:31.362Z,2.00
2023-01-18T13:58:35.006Z,2.17
2023-01-18T14:01:23.796Z,2.80
2023-01-18T14:04:21.803Z,2.83
2023-01-18T14:07:16.835Z,2.45
2023-01-18T14:10:08.050Z,1.83
2023-01-18T14:12:55.747Z,2.10
2023-01-18T14:15:53.327Z,3.17
2023-01-18T14:18:39.379Z,4.28
2023-01-18T14:21:38.071Z,4.90
2023-01-18T14:25:10.545Z,3.47
2023-01-18T14:28:13.480Z,3.73
2023-01-18T14:31:01.722Z,3.38
2023-01-18T14:33:47.990Z,2.60
2023-01-18T14:36:36.142Z,2.50
2023-01-18T14:39:22.492Z,1.75
2023-01-18T14:42:12.043Z,1.17
2023-01-18T14:44:59.170Z,1.40
2023-01-18T14:47:47.741Z,0.70
2023-01-18T14:50:46.983Z,1.15
2023-01-18T14:53:38.545Z,0.60
2023-01-18T14:56:26.373Z,0.93
2023-01-18T14:59:24.730Z,1.13
2023-01-18T15:02:19.001Z,0.60
2023-01-18T15:05:13.606Z,1.25
2023-01-18T15:07:59.582Z,0.80
2023-01-18T15:10:46.039Z,0.73
2023-01-18T15:13:33.012Z,1.38
2023-01-18T15:16:21.814Z,0.63
2023-01-18T15:19:14.185Z,0.65
2023-01-18T15:22:02.167Z,1.00
2023-01-18T15:24:47.829Z,1.10
2023-01-18T15:27:33.614Z,0.98
2023-01-18T15:30:22.530Z,1.10
2023-01-18T15:33:09.977Z,0.65
2023-01-18T15:36:01.186Z,1.00
2023-01-18T15:38:46.711Z,0.77
2023-01-18T15:41:33.235Z,0.85
2023-01-18T15:44:35.767Z,1.25
2023-01-18T15:47:29.164Z,1.33
2023-01-18T15:50:23.229Z,1.55
2023-01-18T15:53:34.077Z,1.40
2023-01-18T15:56:24.465Z,1.00
2023-01-18T15:59:10.295Z,1.10
2023-01-18T16:02:08.353Z,0.90
2023-01-18T16:05:21.130Z,1.25
2023-01-18T16:08:20.165Z,3.25
2023-01-18T16:11:06.173Z,2.22
2023-01-18T16:14:00.979Z,1.45
2023-01-18T16:16:47.261Z,1.08
2023-01-18T16:19:44.313Z,0.82
2023-01-18T16:22:34.023Z,0.98
2023-01-18T16:25:22.995Z,1.10
2023-01-18T16:28:08.618Z,0.90
2023-01-18T16:30:55.187Z,0.85
2023-01-18T16:33:40.703Z,1.10
2023-01-18T16:36:29.707Z,1.08
2023-01-18T16:39:18.805Z,0.80
2023-01-18T16:42:04.387Z,0.60
2023-01-18T16:44:49.781Z,0.73
2023-01-18T16:47:35.171Z,0.73
2023-01-18T16:50:20.792Z,0.65
2023-01-18T16:53:06.646Z,0.52
2023-01-18T16:55:53.021Z,0.98
2023-01-18T16:58:38.345Z,0.85
2023-01-18T17:01:24.402Z,1.10
2023-01-18T17:04:12.654Z,0.95
2023-01-18T17:06:58.144Z,1.45
2023-01-18T17:09:48.816Z,0.93
2023-01-18T17:12:34.753Z,0.85
2023-01-18T17:15:20.303Z,1.02
2023-01-18T17:18:08.212Z,0.90
2023-01-18T17:20:55.220Z,1.08
2023-01-18T17:23:40.530Z,0.98
2023-01-18T17:26:26.033Z,0.45
2023-01-18T17:29:17.822Z,0.55
2023-01-18T17:32:03.415Z,1.20
2023-01-18T17:34:49.352Z,1.00
2023-01-18T17:37:35.603Z,1.08
2023-01-18T17:40:30.780Z,0.88
2023-01-18T17:43:32.130Z,0.68
2023-01-18T17:46:19.917Z,1.00
2023-01-18T17:49:05.718Z,0.73
2023-01-18T17:51:51.070Z,0.65
2023-01-18T17:54:36.338Z,0.80
2023-01-18T17:57:21.989Z,0.88
2023-01-18T18:00:12.183Z,1.27
2023-01-18T18:03:01.072Z,1.43
2023-01-18T18:05:47.091Z,0.90
2023-01-18T18:08:33.984Z,0.95
2023-01-18T18:11:19.328Z,1.13
2023-01-18T18:14:04.905Z,1.23
2023-01-18T18:16:50.156Z,0.60
2023-01-18T18:19:35.551Z,1.42
2023-01-18T18:22:21.516Z,1.08
2023-01-18T18:25:07.453Z,1.17
2023-01-18T18:27:52.620Z,1.42
2023-01-18T18:30:38.183Z,1.10
2023-01-18T18:33:24.803Z,1.45
2023-01-18T18:36:10.251Z,1.30
2023-01-18T18:38:55.564Z,1.77
2023-01-18T18:41:43.272Z,1.58
2023-01-18T18:44:29.555Z,1.77
2023-01-18T18:47:14.823Z,1.52
2023-01-18T18:50:00.607Z,1.40
2023-01-18T18:52:45.835Z,1.50
2023-01-18T18:55:32.061Z,1.70
2023-01-18T18:58:17.874Z,1.00
2023-01-18T19:01:03.809Z,0.85
2023-01-18T19:03:51.176Z,0.93
2023-01-18T19:06:38.310Z,2.00
2023-01-18T19:09:23.936Z,2.05
2023-01-18T19:12:09.538Z,4.13
2023-01-18T19:14:54.957Z,2.53
2023-01-18T19:17:40.355Z,3.80
2023-01-18T19:20:25.836Z,2.53
2023-01-18T19:23:11.674Z,1.48
2023-01-18T19:25:57.289Z,2.90
2023-01-18T19:28:42.980Z,1.70
2023-01-18T19:31:28.592Z,2.85
2023-01-18T19:34:18.689Z,1.75
2023-01-18T19:37:05.535Z,1.80
2023-01-18T19:39:51.064Z,1.98
2023-01-18T19:42:36.816Z,1.63
2023-01-18T19:45:28.122Z,1.85
2023-01-18T19:48:15.329Z,2.00
2023-01-18T19:51:20.718Z,1.77
2023-01-18T19:54:07.967Z,1.38
2023-01-18T19:56:53.550Z,2.38
2023-01-18T19:59:39.049Z,3.03
2023-01-18T20:02:24.747Z,2.35
2023-01-18T20:05:12.492Z,2.22
2023-01-18T20:07:58.379Z,1.80
2023-01-18T20:10:44.399Z,1.92
2023-01-18T20:13:30.144Z,1.90
2023-01-18T20:16:17.803Z,4.40
2023-01-18T20:19:03.297Z,5.65
2023-01-18T20:21:49.704Z,4.25
2023-01-18T20:24:35.271Z,5.82
2023-01-18T20:27:20.804Z,6.30
2023-01-18T20:30:06.795Z,7.38
2023-01-18T20:32:52.662Z,8.30
2023-01-18T20:35:39.162Z,8.32
2023-01-18T20:38:25.292Z,7.13
2023-01-18T20:41:10.971Z,9.00
2023-01-18T20:43:56.466Z,11.10
2023-01-18T20:46:41.949Z,8.95
2023-01-18T20:49:36.958Z,5.18
2023-01-18T20:52:23.722Z,3.55
2023-01-18T20:55:12.831Z,3.72
2023-01-18T20:57:58.323Z,3.20
2023-01-18T21:00:44.280Z,4.45
2023-01-18T21:03:29.776Z,3.95
2023-01-18T21:06:16.060Z,4.18
2023-01-18T21:09:01.686Z,4.07
2023-01-18T21:11:46.919Z,4.45
2023-01-18T21:14:32.824Z,3.50
2023-01-18T21:17:18.368Z,4.35
2023-01-18T21:20:04.414Z,5.22
2023-01-18T21:22:50.067Z,6.63
2023-01-18T21:25:35.317Z,8.05
2023-01-18T21:28:21.145Z,6.53
2023-01-18T21:31:07.939Z,4.00
2023-01-18T21:33:54.683Z,4.30
2023-01-18T21:36:40.426Z,4.20
2023-01-18T21:39:25.883Z,5.68
2023-01-18T21:42:30.364Z,5.22
2023-01-18T21:45:34.532Z,5.35
2023-01-18T21:48:20.056Z,7.13
2023-01-18T21:51:24.544Z,7.57
2023-01-18T21:54:17.003Z,12.77
2023-01-18T21:57:02.779Z,20.73
2023-01-18T21:59:48.945Z,45.65
2023-01-18T22:02:36.098Z,30.52
2023-01-18T22:05:21.464Z,18.95
2023-01-18T22:08:07.150Z,13.40
2023-01-18T22:10:52.538Z,12.60
2023-01-18T22:13:38.497Z,10.90
2023-01-18T22:16:30.050Z,10.63
2023-01-18T22:19:16.309Z,10.00
2023-01-18T22:22:02.479Z,11.25
2023-01-18T22:24:48.767Z,13.63
2023-01-18T22:27:35.330Z,15.45
2023-01-18T22:30:20.895Z,26.13
2023-01-18T22:33:06.369Z,25.33
2023-01-18T22:35:57.597Z,17.45
2023-01-18T22:38:43.876Z,10.93
2023-01-18T22:41:29.739Z,10.90
2023-01-18T22:44:17.312Z,14.60
2023-01-18T22:47:03.324Z,13.55
2023-01-18T22:49:48.898Z,12.23
2023-01-18T22:52:34.308Z,12.50
2023-01-18T22:55:19.863Z,5.75
2023-01-18T22:58:05.217Z,4.82
2023-01-18T23:00:50.709Z,8.23
2023-01-18T23:03:36.936Z,9.23
2023-01-18T23:06:23.008Z,10.48
2023-01-18T23:09:14.687Z,10.57
2023-01-18T23:12:00.154Z,13.65
2023-01-18T23:15:04.252Z,10.57
2023-01-18T23:17:50.052Z,9.60
2023-01-18T23:20:36.783Z,4.22
2023-01-18T23:23:22.436Z,3.85
2023-01-18T23:26:07.987Z,2.88
2023-01-18T23:28:53.349Z,2.80
2023-01-18T23:31:38.823Z,6.50
2023-01-18T23:34:24.198Z,6.35
2023-01-18T23:37:09.898Z,7.47
2023-01-18T23:40:13.981Z,6.95
2023-01-18T23:43:18.050Z,6.10
2023-01-18T23:46:22.244Z,6.38
2023-01-18T23:49:28.506Z,11.02
2023-01-18T23:52:32.584Z,14.52
2023-01-18T23:55:18.005Z,3.97
2023-01-18T23:58:03.723Z,3.15
